Terminal Aerodrome Forecast
Issued by NWS

Home | Current Version | Previous Version | Text Only | Print | Product List | Glossary On
Versions: 1 2 3 4 5 6 7 8 9 10 11 12 13 14 15 16 17 18 19 20 21 22 23 24
446
FTUS41 KBUF 240255 AAA
TAFJHW
TAF AMD
KJHW 240255Z 2403/2424 17006KT P6SM BKN100 WS020/21035KT
     FM241000 18008KT 6SM -RA OVC025 WS020/23055KT
     FM241300 19008KT P6SM VCSH OVC025 WS020/24050KT
     FM241500 20009KT P6SM BKN025 WS020/25050KT
     FM241800 22011KT P6SM BKN007 WS020/25045KT
      AMD LTD TO CLD VIS AND WIND=

USA.gov is the U.S. government's official web portal to all federal, state and local government web resources and services.